Time;durP1;ratioP1;P1;durP2;ratioP2;P2;SDS_P1;SDS_P2;PMS_P1;PMS_P2;Temp;Humidity;BMP_temperature;BMP_pressure;BME280_temperature;BME280_humidity;BME280_pressure;Samples;Min_cycle;Max_cycle;Signal;HPM_P1;HPM_P2
2022/04/20 00:01:42;;;;;;;21.70;7.22;;;11.30;99.90;;;;;;6231522;23;20016;-93
2022/04/20 00:04:28;;;;;;;19.38;8.10;;;11.30;99.90;;;;;;6239389;23;20000;-93
2022/04/20 00:07:20;;;;;;;19.15;8.18;;;11.20;99.90;;;;;;6259421;23;20030;-93
2022/04/20 00:09:49;;;;;;;27.52;7.68;;;11.20;99.90;;;;;;6252870;22;20019;-93
2022/04/20 00:12:19;;;;;;;25.58;8.88;;;11.20;99.90;;;;;;6277006;22;20011;-88
2022/04/20 00:14:45;;;;;;;32.63;9.88;;;11.20;99.90;;;;;;6344616;22;20021;-84
2022/04/20 00:17:12;;;;;;;24.95;8.50;;;11.20;99.90;;;;;;6344451;22;20087;-85
2022/04/20 00:19:39;;;;;;;27.08;7.72;;;11.20;99.90;;;;;;6318488;22;20037;-85
2022/04/20 00:22:06;;;;;;;21.10;8.43;;;11.10;99.90;;;;;;6344726;22;20079;-85
2022/04/20 00:24:33;;;;;;;27.58;8.23;;;11.10;99.90;;;;;;6344658;22;20013;-84
2022/04/20 00:26:59;;;;;;;19.02;7.78;;;11.10;99.90;;;;;;6318592;22;20010;-85
2022/04/20 00:29:26;;;;;;;28.65;9.50;;;11.10;99.90;;;;;;6344397;22;20006;-85
2022/04/20 00:31:53;;;;;;;18.23;8.02;;;11.00;99.90;;;;;;6318476;22;20006;-86
2022/04/20 00:34:19;;;;;;;28.45;8.52;;;11.10;99.90;;;;;;6344241;22;20006;-85
2022/04/20 00:36:50;;;;;;;20.50;8.70;;;11.00;99.90;;;;;;6318416;22;20331;-85
2022/04/20 00:39:18;;;;;;;23.58;8.32;;;11.00;99.90;;;;;;6318445;22;20006;-85
2022/04/20 00:41:44;;;;;;;26.42;8.43;;;11.00;99.90;;;;;;6318237;22;20511;-85
2022/04/20 00:44:12;;;;;;;21.95;8.85;;;11.00;99.90;;;;;;6318321;22;20327;-86
2022/04/20 00:46:42;;;;;;;21.45;7.88;;;10.90;99.90;;;;;;6344243;22;20018;-85
2022/04/20 00:49:10;;;;;;;23.55;8.25;;;10.90;99.90;;;;;;6344425;22;20037;-85
2022/04/20 00:51:37;;;;;;;22.88;8.00;;;10.90;99.90;;;;;;6319186;22;20340;-85
2022/04/20 00:54:04;;;;;;;22.40;8.07;;;10.90;99.90;;;;;;6344113;22;20007;-85
2022/04/20 00:56:31;;;;;;;18.35;7.78;;;10.80;99.90;;;;;;6318322;22;20026;-84
2022/04/20 00:59:01;;;;;;;23.88;7.90;;;10.90;99.90;;;;;;6318396;22;20014;-85
2022/04/20 01:01:31;;;;;;;26.33;7.72;;;10.90;99.90;;;;;;6318224;22;20018;-85
2022/04/20 01:03:58;;;;;;;16.27;7.05;;;10.80;99.90;;;;;;6344362;22;20443;-85
2022/04/20 01:06:32;;;;;;;21.67;7.55;;;10.80;99.90;;;;;;6319809;22;20009;-85
2022/04/20 01:09:05;;;;;;;22.42;7.25;;;10.90;99.90;;;;;;6343990;22;20014;-84
2022/04/20 01:11:52;;;;;;;20.17;7.72;;;10.80;99.90;;;;;;6348969;22;20045;-84
2022/04/20 01:14:50;;;;;;;24.65;7.90;;;10.80;99.90;;;;;;6344026;22;20081;-85
2022/04/20 01:17:36;;;;;;;26.15;7.93;;;10.90;99.90;;;;;;6348541;22;20063;-85
2022/04/20 01:20:14;;;;;;;25.02;7.80;;;10.80;99.90;;;;;;6344056;22;20439;-85
2022/04/20 01:23:12;;;;;;;22.75;6.60;;;10.90;99.90;;;;;;6344008;22;20089;-85
2022/04/20 01:26:18;;;;;;;24.77;7.05;;;10.90;99.90;;;;;;6309854;22;20029;-85
2022/04/20 01:29:15;;;;;;;23.38;6.93;;;11.00;99.90;;;;;;6214588;22;20505;-85
2022/04/20 01:31:59;;;;;;;23.65;7.10;;;11.00;99.90;;;;;;6347364;22;20006;-86
2022/04/20 01:34:44;;;;;;;27.25;7.40;;;11.10;99.90;;;;;;6348441;22;20017;-85
2022/04/20 01:37:10;;;;;;;22.92;7.00;;;11.10;99.90;;;;;;6317804;22;20080;-85
2022/04/20 01:39:44;;;;;;;19.27;6.78;;;11.10;99.90;;;;;;6344025;22;20339;-85
2022/04/20 01:42:11;;;;;;;28.58;7.68;;;11.10;99.90;;;;;;6317544;22;20017;-84
2022/04/20 01:44:49;;;;;;;29.10;7.90;;;11.10;99.90;;;;;;6319423;22;20007;-86
2022/04/20 01:47:41;;;;;;;34.58;7.78;;;11.20;99.90;;;;;;6343952;22;20010;-85
2022/04/20 01:50:26;;;;;;;25.13;8.15;;;11.30;99.90;;;;;;6343758;22;20070;-85
2022/04/20 01:53:19;;;;;;;27.23;9.02;;;11.30;99.90;;;;;;6245083;23;20031;-85
2022/04/20 01:56:08;;;;;;;32.70;8.88;;;11.40;99.90;;;;;;6243230;22;20012;-85
2022/04/20 01:59:01;;;;;;;34.85;9.13;;;11.40;99.90;;;;;;6210376;23;20004;-85
2022/04/20 02:04:49;;;;;;;27.23;8.55;;;11.50;99.90;;;;;;6246362;23;20016;-85
2022/04/20 02:07:16;;;;;;;26.73;10.38;;;11.50;99.90;;;;;;6221619;23;20012;-85
2022/04/20 02:09:50;;;;;;;39.17;12.90;;;11.50;99.90;;;;;;6221610;23;20004;-85
2022/04/20 02:12:18;;;;;;;31.13;11.75;;;11.50;99.90;;;;;;6221273;22;20442;-85
2022/04/20 02:15:06;;;;;;;28.13;12.10;;;11.50;99.90;;;;;;6236798;22;20016;-85
2022/04/20 02:17:59;;;;;;;42.95;11.60;;;11.50;99.90;;;;;;6241279;22;20016;-85
2022/04/20 02:20:42;;;;;;;29.33;9.68;;;11.50;99.90;;;;;;6221297;23;20016;-85
2022/04/20 02:23:09;;;;;;;31.60;9.95;;;11.50;99.90;;;;;;6246474;23;20012;-86
2022/04/20 02:25:36;;;;;;;29.67;10.15;;;11.50;99.90;;;;;;6221448;23;20004;-85
2022/04/20 02:28:03;;;;;;;36.65;11.13;;;11.50;99.90;;;;;;6221464;23;20342;-86
2022/04/20 02:30:32;;;;;;;26.10;9.32;;;11.50;99.90;;;;;;6283399;22;20010;-85
2022/04/20 02:32:59;;;;;;;31.58;10.02;;;11.50;99.90;;;;;;6340561;22;20098;-85
2022/04/20 02:35:27;;;;;;;33.22;9.70;;;11.50;99.90;;;;;;6314363;22;20077;-85
2022/04/20 02:37:54;;;;;;;25.17;9.77;;;11.50;99.90;;;;;;6339870;22;20014;-84
2022/04/20 02:40:21;;;;;;;35.20;10.27;;;11.60;99.90;;;;;;6313822;22;20439;-86
2022/04/20 02:42:50;;;;;;;32.35;10.52;;;11.60;99.90;;;;;;6340079;22;20336;-86
2022/04/20 02:45:18;;;;;;;26.23;9.82;;;11.60;99.90;;;;;;6314240;22;20431;-85
2022/04/20 02:47:51;;;;;;;34.00;10.43;;;11.60;99.90;;;;;;6314074;22;20085;-86
2022/04/20 02:50:18;;;;;;;30.23;10.68;;;11.60;99.90;;;;;;6314288;22;20011;-85
2022/04/20 02:52:45;;;;;;;26.45;9.60;;;11.60;99.90;;;;;;6314377;22;20064;-84
2022/04/20 02:55:11;;;;;;;33.75;11.20;;;11.60;99.90;;;;;;6340846;22;20017;-85
2022/04/20 02:57:40;;;;;;;22.67;9.75;;;11.60;99.90;;;;;;6314363;22;19995;-85
2022/04/20 03:00:10;;;;;;;27.88;10.20;;;11.60;99.90;;;;;;6339842;22;20063;-86
2022/04/20 03:02:46;;;;;;;31.58;9.77;;;11.60;99.90;;;;;;6339894;22;20340;-85
2022/04/20 03:05:13;;;;;;;33.22;10.20;;;11.60;99.90;;;;;;6340064;22;20048;-86
2022/04/20 03:07:39;;;;;;;32.85;9.77;;;11.60;99.90;;;;;;6287845;22;20441;-86
2022/04/20 03:10:06;;;;;;;34.70;10.27;;;11.60;99.90;;;;;;6314006;22;20424;-86
2022/04/20 03:12:43;;;;;;;28.17;11.05;;;11.60;99.90;;;;;;6319855;22;20389;-86
2022/04/20 03:15:10;;;;;;;23.23;9.50;;;11.60;99.90;;;;;;6344818;22;20030;-85
2022/04/20 03:17:41;;;;;;;35.20;11.40;;;11.60;99.90;;;;;;6319062;22;20514;-85
2022/04/20 03:20:10;;;;;;;26.83;9.32;;;11.60;99.90;;;;;;6345392;22;20101;-85
2022/04/20 03:22:38;;;;;;;33.08;10.95;;;11.70;99.90;;;;;;6319322;22;20136;-85
2022/04/20 03:25:06;;;;;;;26.10;9.40;;;11.60;99.90;;;;;;6345011;22;20017;-85
2022/04/20 03:28:01;;;;;;;33.13;10.52;;;11.70;99.90;;;;;;6257529;22;20014;-85
2022/04/20 03:30:32;;;;;;;33.65;10.23;;;11.60;99.90;;;;;;6251680;22;20468;-84
2022/04/20 03:33:02;;;;;;;36.13;11.20;;;11.60;99.90;;;;;;6270246;22;20082;-86
2022/04/20 03:35:31;;;;;;;24.08;10.07;;;11.60;99.90;;;;;;6225855;22;20038;-86
2022/04/20 03:37:57;;;;;;;23.80;9.50;;;11.60;99.90;;;;;;6222596;22;20011;-86
2022/04/20 03:40:24;;;;;;;30.88;11.02;;;11.70;99.90;;;;;;6225709;22;20016;-86
2022/04/20 03:42:53;;;;;;;36.80;10.02;;;11.70;99.90;;;;;;6250791;22;20437;-85
2022/04/20 03:45:22;;;;;;;27.00;10.65;;;11.70;99.90;;;;;;6226169;22;20012;-87
2022/04/20 03:47:48;;;;;;;40.35;11.55;;;11.60;99.90;;;;;;6225969;22;20078;-86
2022/04/20 03:50:15;;;;;;;34.92;10.48;;;11.60;99.90;;;;;;6250847;22;20007;-86
2022/04/20 03:52:44;;;;;;;28.52;10.25;;;11.60;99.90;;;;;;6223056;22;20003;-86
2022/04/20 03:55:12;;;;;;;28.90;9.95;;;11.60;99.90;;;;;;6250653;22;20008;-87
2022/04/20 03:57:40;;;;;;;32.17;10.95;;;11.60;99.90;;;;;;6225783;22;20012;-87
2022/04/20 04:00:07;;;;;;;22.85;10.68;;;11.60;99.90;;;;;;6251280;22;20024;-86
2022/04/20 04:02:43;;;;;;;27.38;10.52;;;11.60;99.90;;;;;;6253149;22;20441;-87
2022/04/20 04:05:25;;;;;;;24.15;9.88;;;11.70;99.90;;;;;;6324153;22;20317;-89
2022/04/20 04:07:58;;;;;;;28.77;10.52;;;11.70;99.90;;;;;;6344765;22;20077;-87
2022/04/20 04:10:29;;;;;;;34.50;11.52;;;11.70;99.90;;;;;;6344625;22;20010;-87
2022/04/20 04:12:56;;;;;;;43.50;12.52;;;11.70;99.90;;;;;;6339253;22;20007;-87
2022/04/20 04:15:24;;;;;;;34.83;11.85;;;11.70;99.90;;;;;;6313647;22;20007;-85
2022/04/20 04:17:58;;;;;;;34.35;11.88;;;11.70;99.90;;;;;;6340251;22;20003;-89
2022/04/20 04:20:29;;;;;;;30.20;11.40;;;11.70;99.90;;;;;;6313674;22;20456;-89
2022/04/20 04:22:57;;;;;;;33.45;10.95;;;11.60;99.90;;;;;;6313236;22;20436;-88
2022/04/20 04:25:44;;;;;;;24.42;9.77;;;11.60;99.90;;;;;;6340028;22;20018;-91
2022/04/20 04:28:18;;;;;;;;;;;11.50;99.90;;;;;;6339319;22;20030;-88
2022/04/20 04:30:46;;;;;;;33.45;10.40;;;11.50;99.90;;;;;;6313683;22;20312;-87
2022/04/20 04:33:12;;;;;;;26.00;11.02;;;11.50;99.90;;;;;;6287615;22;20003;-87
2022/04/20 04:35:42;;;;;;;31.95;10.88;;;11.50;99.90;;;;;;6313107;22;20026;-87
2022/04/20 04:38:23;;;;;;;33.00;10.63;;;11.50;99.90;;;;;;6287594;22;20006;-88
2022/04/20 04:40:53;;;;;;;30.48;9.68;;;11.50;99.90;;;;;;6338728;22;20101;-87
2022/04/20 04:43:20;;;;;;;29.75;10.98;;;11.50;99.90;;;;;;6313271;22;20007;-88
2022/04/20 04:48:47;;;;;;;;;;;11.50;99.90;;;;;;6339398;22;20501;-89
2022/04/20 04:51:16;;;;;;;27.55;10.23;;;11.60;99.90;;;;;;6335009;22;19906;-88
2022/04/20 04:53:48;;;;;;;30.25;11.23;;;11.60;99.90;;;;;;6313428;22;20014;-88
2022/04/20 04:56:26;;;;;;;34.88;10.45;;;11.70;99.90;;;;;;6337827;22;20007;-88
2022/04/20 04:58:53;;;;;;;34.30;11.07;;;11.80;99.90;;;;;;6308523;22;20013;-87
2022/04/20 05:01:21;;;;;;;36.72;11.48;;;11.90;99.90;;;;;;6310739;22;20010;-89
2022/04/20 05:03:47;;;;;;;35.70;10.75;;;12.00;99.90;;;;;;6312852;22;20420;-90
2022/04/20 05:06:21;;;;;;;38.38;10.73;;;12.10;99.90;;;;;;6314127;22;20034;-85
2022/04/20 05:09:26;;;;;;;25.55;9.77;;;12.30;99.90;;;;;;6276231;22;20130;-90
2022/04/20 05:12:01;;;;;;;29.15;8.63;;;12.40;99.90;;;;;;6275836;22;20007;-91
2022/04/20 05:14:31;;;;;;;32.60;8.90;;;12.50;99.90;;;;;;6271838;22;20046;-89
2022/04/20 05:16:59;;;;;;;23.95;8.20;;;12.60;99.90;;;;;;6338336;22;20030;-89
2022/04/20 05:19:27;;;;;;;23.05;8.32;;;12.70;99.90;;;;;;6311238;22;20011;-88
2022/04/20 05:22:00;;;;;;;25.98;8.30;;;12.80;99.90;;;;;;6312715;22;20007;-90
2022/04/20 05:24:35;;;;;;;25.42;7.57;;;12.90;99.90;;;;;;6332410;22;20031;-90
2022/04/20 05:27:06;;;;;;;27.52;7.40;;;13.00;99.90;;;;;;6332891;22;20011;-80
2022/04/20 05:29:48;;;;;;;26.33;7.13;;;13.20;99.90;;;;;;6339088;22;20066;-86
2022/04/20 05:32:18;;;;;;;28.63;8.60;;;13.20;99.90;;;;;;6338499;22;20011;-86
2022/04/20 05:34:45;;;;;;;22.08;6.57;;;13.30;99.90;;;;;;6338680;22;20007;-87
2022/04/20 05:42:49;;;;;;;27.95;5.68;;;13.40;99.90;;;;;;6329068;22;20048;-87
2022/04/20 05:45:16;;;;;;;15.27;5.65;;;13.50;99.90;;;;;;6337960;22;20316;-86
2022/04/20 05:47:48;;;;;;;14.63;5.68;;;13.60;99.90;;;;;;6337306;22;20007;-87
2022/04/20 05:50:15;;;;;;;18.77;6.60;;;13.60;99.90;;;;;;6338326;22;20007;-85
2022/04/20 05:52:43;;;;;;;18.33;5.85;;;13.70;99.90;;;;;;6337948;22;19998;-85
2022/04/20 05:55:11;;;;;;;22.02;5.68;;;13.80;99.90;;;;;;6337796;22;20010;-86
2022/04/20 05:57:40;;;;;;;19.00;5.65;;;13.90;99.90;;;;;;6337697;22;20081;-85
2022/04/20 06:00:08;;;;;;;18.08;6.03;;;14.00;99.90;;;;;;6338588;22;20028;-86
2022/04/20 06:02:43;;;;;;;19.95;5.78;;;14.10;99.90;;;;;;6338999;22;20094;-87
2022/04/20 06:05:14;;;;;;;15.90;5.30;;;14.30;99.90;;;;;;6337246;22;20007;-88
2022/04/20 06:08:00;;;;;;;15.57;4.88;;;14.40;99.90;;;;;;6338849;22;20021;-88
2022/04/20 06:10:57;;;;;;;21.60;5.47;;;14.60;99.90;;;;;;6332250;22;20007;-88
2022/04/20 06:13:27;;;;;;;22.92;4.78;;;14.70;99.90;;;;;;6338366;22;20089;-87
2022/04/20 06:16:06;;;;;;;15.10;4.50;;;14.80;99.90;;;;;;6338134;22;20045;-88
2022/04/20 06:18:47;;;;;;;12.48;4.18;;;14.80;99.90;;;;;;6338635;22;20432;-87
2022/04/20 06:21:35;;;;;;;11.15;4.10;;;14.90;99.90;;;;;;6338414;22;20025;-87
2022/04/20 06:24:11;;;;;;;16.80;4.53;;;15.00;99.90;;;;;;6338302;22;20013;-86
2022/04/20 06:26:54;;;;;;;10.07;3.58;;;15.10;99.90;;;;;;6338412;22;20010;-87
2022/04/20 06:29:41;;;;;;;14.80;3.90;;;15.30;99.90;;;;;;6338510;22;19999;-87
2022/04/20 06:32:29;;;;;;;15.15;3.55;;;15.50;99.90;;;;;;6338441;22;20011;-86
2022/04/20 06:35:15;;;;;;;17.73;4.15;;;15.60;99.90;;;;;;6335911;22;20013;-86
2022/04/20 06:37:53;;;;;;;14.95;4.13;;;15.70;99.90;;;;;;6338496;22;20068;-87
2022/04/20 06:40:40;;;;;;;11.25;3.90;;;15.80;99.90;;;;;;6338206;22;20348;-87
2022/04/20 06:43:26;;;;;;;15.80;3.47;;;16.10;99.90;;;;;;6338730;22;20039;-87
2022/04/20 06:46:25;;;;;;;21.08;3.92;;;16.10;99.90;;;;;;6325082;22;20089;-86
2022/04/20 06:49:23;;;;;;;19.80;4.00;;;16.10;99.90;;;;;;6310907;22;20027;-87
2022/04/20 07:00:46;;;;;;;18.67;3.75;;;18.50;99.90;;;;;;6234945;23;20103;-87
2022/04/20 07:03:41;;;;;;;13.80;3.20;;;18.70;99.90;;;;;;6230937;22;20060;-86
2022/04/20 07:06:32;;;;;;;13.57;4.03;;;18.70;99.90;;;;;;6339497;22;20011;-87
2022/04/20 07:09:34;;;;;;;14.98;4.47;;;18.70;99.90;;;;;;6277253;22;20008;-86
2022/04/20 07:12:17;;;;;;;13.07;3.42;;;19.20;99.90;;;;;;6273504;22;20003;-86
2022/04/20 07:14:46;;;;;;;14.27;3.55;;;19.60;99.90;;;;;;6271126;22;20102;-86
2022/04/20 07:17:13;;;;;;;12.98;3.35;;;20.50;99.90;;;;;;6276666;22;20119;-86
2022/04/20 07:19:51;;;;;;;14.95;3.53;;;21.00;99.90;;;;;;6251114;22;20090;-87
2022/04/20 07:22:35;;;;;;;12.57;3.15;;;21.90;99.90;;;;;;6272766;22;20086;-87
2022/04/20 07:25:23;;;;;;;7.78;2.83;;;22.70;99.90;;;;;;6276152;22;20012;-86
2022/04/20 07:28:11;;;;;;;10.30;2.70;;;23.10;99.90;;;;;;6251284;22;20007;-87
2022/04/20 07:30:56;;;;;;;13.57;3.30;;;22.90;99.90;;;;;;6276553;22;20030;-86
2022/04/20 07:33:44;;;;;;;16.58;3.35;;;21.80;99.90;;;;;;6276645;22;20023;-86
2022/04/20 07:36:21;;;;;;;12.30;3.45;;;21.00;99.90;;;;;;6274183;22;20011;-86
2022/04/20 07:39:06;;;;;;;12.18;3.50;;;21.00;99.90;;;;;;6276928;22;20142;-86
2022/04/20 07:41:52;;;;;;;11.43;3.42;;;22.10;99.90;;;;;;6276660;22;20092;-87
2022/04/20 07:44:56;;;;;;;11.35;3.17;;;22.60;99.90;;;;;;6332110;22;20026;-89
2022/04/20 07:47:41;;;;;;;12.77;3.45;;;23.70;99.90;;;;;;6339553;22;20455;-86
2022/04/20 07:50:19;;;;;;;13.40;3.13;;;24.50;99.90;;;;;;6341055;22;20003;-83
2022/04/20 07:53:00;;;;;;;13.65;3.22;;;25.20;99.90;;;;;;6315720;22;20006;-87
2022/04/20 07:55:48;;;;;;;13.10;3.00;;;25.70;99.90;;;;;;6340717;22;20017;-86
2022/04/20 07:58:25;;;;;;;11.38;3.00;;;26.10;99.90;;;;;;6339316;22;20337;-88
2022/04/20 08:01:11;;;;;;;10.98;2.17;;;26.70;99.90;;;;;;6316865;22;20076;-86
2022/04/20 08:03:57;;;;;;;12.43;2.58;;;26.60;99.90;;;;;;6338317;22;20014;-85
2022/04/20 08:06:46;;;;;;;14.60;2.60;;;25.50;99.90;;;;;;6339649;22;20003;-86
2022/04/20 08:09:16;;;;;;;14.13;3.25;;;25.00;99.90;;;;;;6313027;22;20463;-87
2022/04/20 08:11:43;;;;;;;8.90;2.67;;;24.50;99.90;;;;;;6339081;22;20007;-88
2022/04/20 08:14:14;;;;;;;11.05;3.10;;;24.40;99.90;;;;;;6338982;22;20015;-89
2022/04/20 08:16:48;;;;;;;10.95;2.80;;;24.30;99.90;;;;;;6314508;22;20007;-87
2022/04/20 08:19:42;;;;;;;11.70;2.88;;;24.30;99.90;;;;;;6303776;22;20336;-87
2022/04/20 08:22:14;;;;;;;15.82;3.88;;;24.10;99.90;;;;;;6339338;22;20018;-89
2022/04/20 08:24:45;;;;;;;8.65;2.55;;;23.30;99.90;;;;;;6339418;22;20003;-90
2022/04/20 08:27:14;;;;;;;11.50;3.00;;;22.70;99.90;;;;;;6312828;22;20013;-90
2022/04/20 08:29:42;;;;;;;12.45;3.03;;;22.10;99.90;;;;;;6312973;22;20431;-85
2022/04/20 08:32:12;;;;;;;19.55;3.22;;;21.50;99.90;;;;;;6312915;22;20459;-88
2022/04/20 08:34:38;;;;;;;12.43;3.38;;;21.20;99.90;;;;;;6339166;22;20011;-87
2022/04/20 08:37:15;;;;;;;15.55;3.33;;;21.40;99.90;;;;;;6339143;22;19999;-90
2022/04/20 08:39:41;;;;;;;10.75;3.30;;;21.50;99.90;;;;;;6339214;22;20010;-87
2022/04/20 08:42:11;;;;;;;13.10;3.30;;;21.70;99.90;;;;;;6313419;22;20015;-86
2022/04/20 08:44:50;;;;;;;9.82;2.90;;;21.90;99.90;;;;;;6312769;22;20023;-86
2022/04/20 08:47:26;;;;;;;10.82;2.95;;;22.40;99.90;;;;;;6312624;22;20056;-87
2022/04/20 08:49:55;;;;;;;9.77;3.35;;;22.40;99.90;;;;;;6312731;22;20459;-88
2022/04/20 08:52:37;;;;;;;10.85;2.85;;;22.20;99.90;;;;;;6312814;22;20009;-85
2022/04/20 08:55:07;;;;;;;15.30;3.13;;;22.20;99.90;;;;;;6287251;22;20443;-86
2022/04/20 08:57:35;;;;;;;10.00;2.90;;;22.90;99.90;;;;;;6338902;22;20382;-89
2022/04/20 09:00:05;;;;;;;12.48;2.95;;;23.40;99.90;;;;;;6312443;22;20056;-84
2022/04/20 09:02:32;;;;;;;8.82;2.38;;;23.80;99.90;;;;;;6339023;22;20440;-90
2022/04/20 09:04:59;;;;;;;7.13;2.50;;;23.40;99.90;;;;;;6338748;22;20007;-86
2022/04/20 09:07:26;;;;;;;9.13;2.83;;;23.20;99.90;;;;;;6338786;22;20006;-86
2022/04/20 09:09:52;;;;;;;10.45;3.05;;;22.90;99.90;;;;;;6312630;22;20424;-85
2022/04/20 09:12:22;;;;;;;8.80;2.50;;;22.50;99.90;;;;;;6338625;22;20003;-90
2022/04/20 09:14:51;;;;;;;11.63;3.15;;;22.10;99.90;;;;;;6343448;22;20010;-88
2022/04/20 09:17:26;;;;;;;11.00;2.65;;;21.80;99.90;;;;;;6343912;22;20007;-92
2022/04/20 09:19:59;;;;;;;9.20;2.72;;;21.40;99.90;;;;;;6317599;22;20028;-85
2022/04/20 09:22:30;;;;;;;10.30;3.20;;;21.20;99.90;;;;;;6341571;22;20021;-89
2022/04/20 09:24:59;;;;;;;8.60;3.00;;;21.00;99.90;;;;;;6312669;22;20451;-86
2022/04/20 09:27:30;;;;;;;7.15;3.03;;;20.70;99.90;;;;;;6342273;22;20003;-85
2022/04/20 09:30:01;;;;;;;13.52;2.83;;;20.60;99.90;;;;;;6344020;22;20022;-84
2022/04/20 09:32:45;;;;;;;13.07;3.58;;;20.60;99.90;;;;;;6343830;22;20055;-85
2022/04/20 09:35:24;;;;;;;11.40;3.65;;;20.60;99.90;;;;;;6343959;22;20089;-92
2022/04/20 09:38:06;;;;;;;12.05;3.42;;;20.50;99.90;;;;;;6344571;22;20010;-91
2022/04/20 09:41:07;;;;;;;11.15;3.50;;;20.50;99.90;;;;;;6340975;22;20014;-89
2022/04/20 09:43:34;;;;;;;12.77;2.95;;;20.40;99.90;;;;;;6344032;22;20014;-89
2022/04/20 09:49:11;;;;;;;9.23;2.50;;;20.40;99.90;;;;;;6356133;22;20436;-88
2022/04/20 09:51:40;;;;;;;9.50;2.30;;;20.30;99.90;;;;;;6338651;22;20007;-88
2022/04/20 09:57:09;;;;;;;10.02;2.63;;;20.50;99.90;;;;;;6310116;22;20023;-90
2022/04/20 09:59:36;;;;;;;6.82;2.20;;;20.50;99.90;;;;;;6251228;22;20426;-90
2022/04/20 10:02:12;;;;;;;9.30;2.55;;;20.60;99.90;;;;;;6225780;22;20016;-93
2022/04/20 10:04:45;;;;;;;5.85;2.97;;;20.70;99.90;;;;;;6230707;22;20038;-92
2022/04/20 10:07:11;;;;;;;7.78;3.10;;;20.70;99.90;;;;;;6282044;22;20007;-90
2022/04/20 10:09:38;;;;;;;8.98;2.80;;;20.70;99.90;;;;;;6282205;22;20090;-92
2022/04/20 10:12:07;;;;;;;11.07;2.92;;;20.60;99.90;;;;;;6282686;22;20096;-94
2022/04/20 10:17:24;;;;;;;11.60;2.90;;;20.70;99.90;;;;;;6308263;22;20011;-91
2022/04/20 10:20:00;;;;;;;8.68;2.85;;;20.70;99.90;;;;;;6314128;22;20008;-93
2022/04/20 10:56:01;;;;;;;7.97;2.40;;;20.40;99.90;;;;;;6335784;22;20019;-93
2022/04/20 10:59:51;;;;;;;;;;;;;;;;;;;;;
2022/04/20 11:21:23;;;;;;;;;;;;;;;;;;;;;
2022/04/20 11:24:11;;;;;;;13.60;2.80;;;20.00;99.90;;;;;;6247039;23;20003;-92
2022/04/20 11:29:23;;;;;;;11.93;2.80;;;19.90;99.90;;;;;;6327918;22;20023;-92
2022/04/20 11:31:51;;;;;;;8.27;2.30;;;19.80;99.90;;;;;;6252242;22;20012;-92
2022/04/20 11:34:21;;;;;;;9.73;3.17;;;19.80;99.90;;;;;;6256532;22;19987;-91
2022/04/20 11:36:55;;;;;;;13.02;2.70;;;19.80;99.90;;;;;;6310080;22;19996;-91
2022/04/20 11:39:24;;;;;;;9.68;2.95;;;19.80;99.90;;;;;;6283395;22;20002;-91
2022/04/20 11:41:53;;;;;;;11.35;3.15;;;19.70;99.90;;;;;;6280122;22;20015;-91
2022/04/20 11:44:27;;;;;;;13.43;2.55;;;19.70;99.90;;;;;;6303468;22;20010;-91
2022/04/20 11:47:15;;;;;;;10.93;2.67;;;19.70;99.90;;;;;;6289040;22;20007;-94
2022/04/20 11:49:47;;;;;;;15.73;4.15;;;19.70;99.90;;;;;;6261329;22;20007;-92
2022/04/20 13:03:34;;;;;;;5.78;2.50;;;19.30;99.90;;;;;;6318803;22;20017;-93
2022/04/20 13:06:23;;;;;;;13.48;3.05;;;19.30;99.90;;;;;;6317340;22;20009;-93
2022/04/20 13:11:55;;;;;;;7.20;2.97;;;19.40;99.90;;;;;;6262167;22;20015;-93
2022/04/20 13:14:21;;;;;;;10.45;2.63;;;19.30;99.90;;;;;;6253726;22;20012;-91
2022/04/20 13:16:48;;;;;;;8.35;2.78;;;19.20;99.90;;;;;;6278601;22;20004;-93
2022/04/20 13:19:15;;;;;;;10.02;3.17;;;19.20;99.90;;;;;;6251956;22;20010;-93
2022/04/20 13:21:44;;;;;;;11.95;2.80;;;19.20;99.90;;;;;;6307604;22;20090;-93
2022/04/20 13:27:53;;;;;;;5.53;2.50;;;19.20;99.90;;;;;;6309084;22;20010;-92
2022/04/20 13:29:46;;;;;;;7.05;2.42;;;19.30;99.90;;;;;;6282049;22;20007;-92
2022/04/20 13:32:14;;;;;;;10.35;2.50;;;19.20;99.90;;;;;;6256841;22;19999;-92
2022/04/20 13:34:42;;;;;;;8.75;2.55;;;19.10;99.90;;;;;;6307929;22;20014;-93
2022/04/20 13:37:09;;;;;;;15.23;3.90;;;19.10;99.90;;;;;;6307548;22;19999;-92
2022/04/20 13:39:35;;;;;;;11.57;3.22;;;19.10;99.90;;;;;;6256035;22;20480;-92
2022/04/20 13:42:02;;;;;;;13.65;3.17;;;19.10;99.90;;;;;;6256148;22;20046;-92
2022/04/20 13:44:28;;;;;;;8.48;3.33;;;19.10;99.90;;;;;;6308787;22;20003;-92
2022/04/20 13:46:55;;;;;;;6.75;2.53;;;19.10;99.90;;;;;;6281651;22;20031;-93
2022/04/20 13:49:21;;;;;;;6.13;2.35;;;19.10;99.90;;;;;;6256172;22;20007;-93
2022/04/20 13:51:48;;;;;;;8.30;2.55;;;19.20;99.90;;;;;;6256250;22;20134;-93
2022/04/20 13:54:18;;;;;;;10.05;3.35;;;19.10;99.90;;;;;;6314836;22;20063;-93
2022/04/20 13:57:03;;;;;;;;;;;;;;;;;;;;;
2022/04/20 13:59:44;;;;;;;8.57;2.70;;;19.00;99.90;;;;;;6252031;22;20030;-93
2022/04/20 14:02:32;;;;;;;8.48;3.10;;;18.90;99.90;;;;;;6230980;22;20087;-93
2022/04/20 14:05:07;;;;;;;9.48;2.83;;;18.90;99.90;;;;;;6322640;22;20003;-93
2022/04/20 14:07:45;;;;;;;9.70;2.72;;;18.90;99.90;;;;;;6323019;22;20011;-93
2022/04/20 14:10:22;;;;;;;8.13;3.72;;;18.90;99.90;;;;;;6321507;22;20008;-93
2022/04/20 14:13:39;;;;;;;11.43;3.42;;;19.00;99.90;;;;;;6298516;22;20028;-93
2022/04/20 14:17:01;;;;;;;;;;;;;;;;;;;;;
2022/04/20 14:39:54;;;;;;;10.40;2.78;;;18.70;99.90;;;;;;6333244;22;20030;-92
2022/04/20 14:42:21;;;;;;;12.80;4.00;;;18.60;99.90;;;;;;6302200;22;20394;-92
2022/04/20 14:44:48;;;;;;;13.13;3.10;;;18.60;99.90;;;;;;6328029;22;20025;-93
2022/04/20 14:47:14;;;;;;;15.07;3.88;;;18.60;99.90;;;;;;6293838;22;20003;-92
2022/04/20 14:49:44;;;;;;;13.00;3.22;;;18.50;99.90;;;;;;6300050;22;20002;-92
2022/04/20 14:52:13;;;;;;;11.55;3.17;;;18.50;99.90;;;;;;6308033;22;20002;-93
2022/04/20 14:54:47;;;;;;;10.55;3.17;;;18.40;99.90;;;;;;6304021;22;20014;-92
2022/04/20 14:57:13;;;;;;;9.23;3.28;;;18.40;99.90;;;;;;6303657;22;20003;-93
2022/04/20 14:59:45;;;;;;;14.98;3.63;;;18.40;99.90;;;;;;6305928;22;20013;-92
2022/04/20 15:02:15;;;;;;;14.25;2.85;;;18.40;99.90;;;;;;6307260;22;20014;-92
2022/04/20 15:04:42;;;;;;;7.82;3.10;;;18.30;99.90;;;;;;6299842;22;19999;-92
2022/04/20 15:07:16;;;;;;;12.55;4.00;;;18.30;99.90;;;;;;6302348;22;20015;-93
2022/04/20 15:09:47;;;;;;;12.18;3.03;;;18.30;99.90;;;;;;6265938;22;20068;-92
2022/04/20 15:12:16;;;;;;;16.17;3.33;;;18.20;99.90;;;;;;6286413;22;20011;-93
2022/04/20 15:14:47;;;;;;;14.18;3.25;;;18.20;99.90;;;;;;6296936;22;20003;-93
2022/04/20 15:17:27;;;;;;;13.10;3.20;;;18.20;99.90;;;;;;6217203;22;20023;-92
2022/04/20 15:21:03;;;;;;;14.48;3.42;;;18.20;99.90;;;;;;6292124;22;20004;-93
2022/04/20 15:23:39;;;;;;;13.57;2.88;;;18.20;99.90;;;;;;6239812;22;20019;-94
2022/04/20 15:26:11;;;;;;;12.70;2.70;;;18.10;99.90;;;;;;6292961;22;20009;-93
2022/04/20 15:29:11;;;;;;;15.25;3.10;;;18.10;99.90;;;;;;6261613;22;20330;-92
2022/04/20 15:32:01;;;;;;;9.68;2.83;;;18.20;99.90;;;;;;6269797;22;20003;-93
2022/04/20 15:34:27;;;;;;;8.10;2.22;;;18.00;99.90;;;;;;6288691;22;20031;-92
2022/04/20 15:36:54;;;;;;;15.35;3.38;;;18.10;99.90;;;;;;6287613;22;20015;-91
2022/04/20 15:39:21;;;;;;;13.20;3.22;;;18.10;99.90;;;;;;6287423;22;20022;-92
2022/04/20 15:41:48;;;;;;;12.57;3.28;;;18.20;99.90;;;;;;6290728;22;20098;-92
2022/04/20 15:44:14;;;;;;;13.02;3.15;;;18.20;99.90;;;;;;6287970;22;20022;-91
2022/04/20 15:46:41;;;;;;;11.48;2.95;;;18.20;99.90;;;;;;6288001;22;20007;-91
2022/04/20 15:49:08;;;;;;;17.65;3.42;;;18.10;99.90;;;;;;6287952;22;20082;-92
2022/04/20 15:51:34;;;;;;;14.90;3.30;;;18.10;99.90;;;;;;6288525;22;20010;-92
2022/04/20 15:54:02;;;;;;;10.48;3.40;;;18.00;99.90;;;;;;6262593;22;20015;-92
2022/04/20 16:02:01;;;;;;;12.60;3.83;;;18.00;99.90;;;;;;6314433;22;20018;-92
2022/04/20 16:04:36;;;;;;;20.67;5.13;;;18.00;99.90;;;;;;6289153;22;20013;-93
2022/04/20 16:07:08;;;;;;;11.38;2.60;;;18.00;99.90;;;;;;6288741;22;20011;-92
2022/04/20 16:09:34;;;;;;;18.58;3.35;;;17.90;99.90;;;;;;6288092;22;19999;-92
2022/04/20 16:12:01;;;;;;;11.52;2.65;;;17.80;99.90;;;;;;6287982;22;20007;-91
2022/04/20 16:14:28;;;;;;;11.82;3.17;;;17.70;99.90;;;;;;6288986;22;20130;-92
2022/04/20 16:16:54;;;;;;;9.00;3.03;;;17.80;99.90;;;;;;6288633;22;20003;-92
2022/04/20 16:19:21;;;;;;;12.90;3.03;;;17.80;99.90;;;;;;6290823;22;20086;-92
2022/04/20 16:21:48;;;;;;;16.27;3.22;;;17.70;99.90;;;;;;6287974;22;20014;-92
2022/04/20 16:24:14;;;;;;;15.27;4.40;;;17.70;99.90;;;;;;6278678;22;20057;-92
2022/04/20 16:26:41;;;;;;;18.35;5.38;;;17.70;99.90;;;;;;6287715;22;20002;-92